Metar z połowy godziny Komunikat METAR ze strony awiacja.imgw.pl Metar G00 EPGD METAR EPGD 230330Z 18013KT 9999 -RA SCT004 OVC007 07/06 Q0987 =